Salisbury, MD (21801)

2:39 PM EST on February 12, 2016 (GMT -0500)
Pemberton | | Change Station
CLOSE
Current Station
Personal Weather Station
Location: Salisbury, MD
Elevation: 26 ft
Nearby Weather Stations

Elev 26 ft 38.36 °N, 75.62 °W | Updated 10 seconds ago

Overcast
Overcast
30.6 °F
Feels Like 25 °F
N
5.1
Wind Variable Wind from WSW
Gusts 9.0 mph

Today
High -- | Low -- °F
--% Chance of Precip.
Yesterday
High -- | Low -- °F
Precip. -- in
Pressure 30.14 in
Visibility 10.0 miles
Clouds Mostly Cloudy 9000 ft
Windchill 25 °F
Dew Point 8 °F
Humidity 38%
Rainfall 0.00 in
Snow Depth Not available.
6:56 AM 5:36 PM
Waxing Crescent, 23% visible
METAR KSBY 121854Z 25004KT 10SM BKN090 M02/M15 A3013 RMK AO2 SLP206 T10171150
Pressure 30.14 in
Visibility 10.0 miles
Clouds Mostly Cloudy 9000 ft
Windchill 25 °F
Dew Point 8 °F
Humidity 38%
Rainfall 0.00 in
Snow Depth Not available.
6:56 AM 5:36 PM
Waxing Crescent, 23% visible
METAR KSBY 121854Z 25004KT 10SM BKN090 M02/M15 A3013 RMK AO2 SLP206 T10171150

10-Day Weather Forecast

Almanac

Astronomy

Feb. 12, 2016 Rise Set
Actual Time
Civil Twilight
Nautical Twilight
Astronomical Twilight
Moon
Length of Visible Light
Length of Day
Tomorrow will be .
, % of the Moon is Illuminated

Today's Extremes

State Highs State Lows

Community

WunderPhotos

Upload Photos

1,892,380 photos uploaded!

WunderBlog® & News

Nearby

Air Quality

  Air Quality AQ Index Pollutant
Not available.

Snow Depth

Station Depth Elevation

Earthquake Activity

City Distance Mag. Time & Date
Minimum magnitude displayed is 2.5.

Coastal Water Temperatures

Place Temperature

Stations

Nearby Weather Stations

Station Location Temp. Windchill Dew Point Humidity Wind Precip. Elev Updated Type
                   

Watches & Warnings

There are currently no watches in effect.